Lowville, NY

8:32 PM EDT on October 25, 2014 (GMT -0400)
Highland Acres | Change Station
CLOSE
Current Station
Personal Weather Station
Location: Copenhagen, NY
Elevation: 1621 ft
Nearby Weather Stations

Elev 1621 ft 43.80 °N, 75.69 °W | Updated 5 minutes ago

Partly Cloudy
Partly Cloudy
49.9 °F
Feels Like 47 °F
N
7.0
Wind Variable Wind from West
Gusts 21.0 mph

Today
High -- | Low -- °F
--% Chance of Precip.
Yesterday
High -- | Low -- °F
Precip. -- in
7:29 AM 6:03 PM
Waxing Crescent, 5% visible
Pressure 29.55 in
Visibility 6.0 miles
Clouds Clear
Windchill 47 °F
Dew Point 49 °F
Humidity 96%
Rainfall 0.25 in
Snow Depth Not available.
UV 0 out of 12
Pollen .60 out of 12
Air Quality Not available.
Flu Activity Sporadic
METAR KGTB 252358Z AUTO 25008KT 6SM BR CLR 11/11 A2954 RMK AO2 SLP005 60014 T01100110 10146 20109 53007

More Conditions Fewer Conditions

Pressure 29.55 in
Visibility 6.0 miles
Clouds Clear
Windchill 47 °F
Dew Point 49 °F
Humidity 96%
Rainfall 0.25 in
Snow Depth Not available.
UV 0 out of 12
Pollen .60 out of 12
Air Quality Not available.
Flu Activity Sporadic
METAR KGTB 252358Z AUTO 25008KT 6SM BR CLR 11/11 A2954 RMK AO2 SLP005 60014 T01100110 10146 20109 53007

More Conditions Fewer Conditions

10-Day Weather Forecast

Almanac

Astronomy

Oct. 25, 2014 Rise Set
Actual Time 7:29 AM EDT 6:03 PM EDT
Civil Twilight 7:00 AM EDT 6:32 PM EDT
Nautical Twilight 6:26 AM EDT 7:06 PM EDT
Astronomical Twilight 5:53 AM EDT 7:39 PM EDT
Moon 9:08 AM EDT (10/25) 7:21 PM EDT (10/25)
Length of Visible Light 11h 32m
Length of Day
10h 33m
Tomorrow will be 2m 46s shorter.
Waxing Crescent, 5% of the Moon is Illuminated
Today
Waxing Crescent
Oct 30
First Quarter
Nov 6
Full
Nov 14
Last Quarter
Nov 22
New

Today's Extremes

State Highs State Lows

Community

WunderPhotos

Upload Photos

1,765,052 photos uploaded!

Nearby

Air Quality

  Air Quality AQ Index Pollutant
Saturday Good
PM2.5
Sunday Good
PM2.5
Monday Good
PM2.5

Snow Depth

Station Depth Elevation
No new snow has been reported.

Earthquake Activity

City Distance Mag. Time & Date
No recent earthquake activity has been reported nearby.
Minimum magnitude displayed is 2.5.

Coastal Water Temperatures

Place Temperature
Alexandria Bay, NY 55.9 °F
Ogdensburg, NY 57.0 °F

Nearby Weather Stations